Time;durP1;ratioP1;P1;durP2;ratioP2;P2;SDS_P1;SDS_P2;PMS_P1;PMS_P2;Temp;Humidity;BMP_temperature;BMP_pressure;BME280_temperature;BME280_humidity;BME280_pressure;Samples;Min_cycle;Max_cycle;Signal;HPM_P1;HPM_P2
2022/04/04 00:00:21;;;;;;;2.57;1.00;;;2.40;99.90;;;;;;5035022;28;20035;-80
2022/04/04 00:02:47;;;;;;;3.20;2.00;;;2.40;99.90;;;;;;5010585;28;20039;-79
2022/04/04 00:05:14;;;;;;;5.37;1.77;;;2.40;99.90;;;;;;5011992;28;20032;-82
2022/04/04 00:07:40;;;;;;;3.43;1.40;;;2.40;99.90;;;;;;5010421;28;20104;-81
2022/04/04 00:10:07;;;;;;;2.37;1.50;;;2.40;99.90;;;;;;5027690;28;20037;-81
2022/04/04 00:12:33;;;;;;;4.47;1.47;;;2.40;99.90;;;;;;4981150;28;20033;-82
2022/04/04 00:15:00;;;;;;;3.53;1.50;;;2.40;99.90;;;;;;5043090;28;20024;-81
2022/04/04 00:17:27;;;;;;;3.13;1.60;;;2.30;99.90;;;;;;5014788;28;20043;-81
2022/04/04 00:19:53;;;;;;;3.63;1.47;;;2.30;99.90;;;;;;5043841;28;20062;-81
2022/04/04 00:22:20;;;;;;;2.83;1.40;;;2.30;99.90;;;;;;5059068;28;20047;-81
2022/04/04 00:24:46;;;;;;;3.67;1.40;;;2.30;99.90;;;;;;5024512;28;20021;-81
2022/04/04 00:27:13;;;;;;;2.50;1.27;;;2.30;99.90;;;;;;5017942;28;20044;-81
2022/04/04 00:29:39;;;;;;;3.37;1.80;;;2.20;99.90;;;;;;5022031;28;20032;-82
2022/04/04 00:32:06;;;;;;;2.43;1.17;;;2.20;99.90;;;;;;5009814;28;20031;-81
2022/04/04 00:34:33;;;;;;;7.40;1.50;;;2.20;99.90;;;;;;5041705;28;20036;-83
2022/04/04 00:37:00;;;;;;;4.60;1.23;;;2.20;99.90;;;;;;5028532;28;20384;-83
2022/04/04 00:39:27;;;;;;;3.63;1.07;;;2.10;99.90;;;;;;5003504;28;20146;-83
2022/04/04 00:41:53;;;;;;;2.40;0.90;;;2.10;99.90;;;;;;4986352;28;20044;-83
2022/04/04 00:44:20;;;;;;;2.53;1.20;;;2.10;99.90;;;;;;5009703;28;20490;-82
2022/04/04 00:46:46;;;;;;;3.27;1.70;;;2.10;99.90;;;;;;5052271;28;20044;-80
2022/04/04 00:49:13;;;;;;;3.07;1.20;;;2.10;99.90;;;;;;5036911;28;20029;-81
2022/04/04 00:51:40;;;;;;;4.40;2.27;;;2.10;99.90;;;;;;5009454;28;20032;-81
2022/04/04 00:54:08;;;;;;;4.50;2.13;;;2.10;99.90;;;;;;5009754;28;20036;-80
2022/04/04 00:56:38;;;;;;;4.73;1.90;;;2.10;99.90;;;;;;5025578;28;20024;-81
2022/04/04 00:59:13;;;;;;;4.73;2.27;;;2.10;99.90;;;;;;5026058;28;20032;-81
2022/04/04 01:01:43;;;;;;;5.67;2.80;;;2.10;99.90;;;;;;5008503;28;20035;-80
2022/04/04 01:04:13;;;;;;;4.93;3.00;;;2.10;99.90;;;;;;5041970;28;20048;-81
2022/04/04 01:06:40;;;;;;;5.37;2.60;;;2.10;99.90;;;;;;5042206;28;20048;-85
2022/04/04 01:09:07;;;;;;;4.77;2.40;;;2.10;99.90;;;;;;5061731;28;20028;-84
2022/04/04 01:11:53;;;;;;;4.03;2.43;;;2.10;99.90;;;;;;4992711;28;20036;-90
2022/04/04 01:14:22;;;;;;;6.87;3.77;;;2.10;99.90;;;;;;5059580;28;20403;-86
2022/04/04 01:16:49;;;;;;;6.13;3.77;;;2.10;99.90;;;;;;5042615;28;20021;-85
2022/04/04 01:19:15;;;;;;;8.33;3.27;;;2.10;99.90;;;;;;5009514;28;20056;-86
2022/04/04 01:21:42;;;;;;;5.73;3.47;;;2.10;99.90;;;;;;5009096;28;20028;-90
2022/04/04 01:24:17;;;;;;;9.13;4.87;;;2.10;99.90;;;;;;5011270;28;20036;-87
2022/04/04 01:26:52;;;;;;;6.83;4.10;;;2.20;99.90;;;;;;5007871;28;20628;-86
2022/04/04 01:29:20;;;;;;;5.10;3.30;;;2.20;99.90;;;;;;5025840;28;20487;-85
2022/04/04 01:31:47;;;;;;;8.47;5.50;;;2.20;99.90;;;;;;5043351;28;20040;-86
2022/04/04 01:34:18;;;;;;;7.90;3.67;;;2.20;99.90;;;;;;5009285;28;20032;-91
2022/04/04 01:36:47;;;;;;;6.83;2.93;;;2.20;99.90;;;;;;5010808;28;20036;-80
2022/04/04 01:39:14;;;;;;;4.53;2.80;;;2.30;99.90;;;;;;5026430;28;20028;-81
2022/04/04 01:41:41;;;;;;;5.07;3.70;;;2.30;99.90;;;;;;4992198;28;20020;-84
2022/04/04 01:44:08;;;;;;;5.63;3.50;;;2.30;99.90;;;;;;5025324;28;20463;-82
2022/04/04 01:46:35;;;;;;;5.27;3.37;;;2.30;99.90;;;;;;5040296;28;20330;-83
2022/04/04 01:49:04;;;;;;;7.53;4.10;;;2.30;99.90;;;;;;5005912;28;20506;-83
2022/04/04 01:51:34;;;;;;;5.97;4.33;;;2.30;99.90;;;;;;5008854;28;20028;-82
2022/04/04 01:54:01;;;;;;;4.50;3.43;;;2.40;99.90;;;;;;5042286;28;20399;-83
2022/04/04 01:56:28;;;;;;;8.27;3.93;;;2.40;99.90;;;;;;5007674;28;20048;-82
2022/04/04 01:58:55;;;;;;;5.83;3.33;;;2.40;99.90;;;;;;5011940;28;20028;-82
2022/04/04 02:01:25;;;;;;;5.40;3.00;;;2.40;99.90;;;;;;5029050;28;20486;-81
2022/04/04 02:03:56;;;;;;;6.60;3.43;;;2.40;99.90;;;;;;5021041;28;20037;-84
2022/04/04 02:06:23;;;;;;;6.00;3.90;;;2.50;99.90;;;;;;5023582;28;20040;-83
2022/04/04 02:08:51;;;;;;;6.30;3.67;;;2.50;99.90;;;;;;5022840;28;20043;-83
2022/04/04 02:11:20;;;;;;;8.67;4.27;;;2.50;99.90;;;;;;5005426;28;20033;-85
2022/04/04 02:13:47;;;;;;;6.87;3.40;;;2.50;99.90;;;;;;5004516;28;20038;-80
2022/04/04 02:16:14;;;;;;;7.03;4.57;;;2.60;99.90;;;;;;5038943;28;20027;-84
2022/04/04 02:18:41;;;;;;;6.80;4.20;;;2.60;99.90;;;;;;5009284;28;20049;-84
2022/04/04 02:21:10;;;;;;;8.63;5.10;;;2.60;99.90;;;;;;5041627;28;20407;-87
2022/04/04 02:23:37;;;;;;;5.20;3.77;;;2.60;99.90;;;;;;5009526;28;20059;-85
2022/04/04 02:26:04;;;;;;;8.77;4.70;;;2.70;99.90;;;;;;5007109;28;20039;-82
2022/04/04 02:28:30;;;;;;;4.17;3.27;;;2.70;99.90;;;;;;5026907;28;20032;-85
2022/04/04 02:30:57;;;;;;;6.63;4.40;;;2.70;99.90;;;;;;5021768;28;20375;-83
2022/04/04 02:33:25;;;;;;;8.97;4.43;;;2.70;99.90;;;;;;5022145;28;20035;-83
2022/04/04 02:35:52;;;;;;;7.23;4.70;;;2.80;99.90;;;;;;5037095;28;20508;-83
2022/04/04 02:38:25;;;;;;;8.00;4.33;;;2.80;99.90;;;;;;5024452;28;20043;-84
2022/04/04 02:40:53;;;;;;;8.27;4.57;;;2.80;99.90;;;;;;5025417;28;20036;-85
2022/04/04 02:43:20;;;;;;;5.87;4.50;;;2.80;99.90;;;;;;5020361;28;20040;-84
2022/04/04 02:45:47;;;;;;;8.10;4.73;;;2.80;99.90;;;;;;5022230;28;20032;-83
2022/04/04 02:48:16;;;;;;;10.10;6.50;;;2.80;99.90;;;;;;5007896;28;20111;-85
2022/04/04 02:50:46;;;;;;;9.77;5.53;;;2.90;99.90;;;;;;5009293;28;20041;-84
2022/04/04 02:53:14;;;;;;;7.70;5.53;;;2.80;99.90;;;;;;5004817;28;20369;-86
2022/04/04 02:58:29;;;;;;;10.90;5.70;;;2.90;99.90;;;;;;5013877;28;20418;-83
2022/04/04 03:00:55;;;;;;;7.33;4.90;;;2.90;99.90;;;;;;5025844;28;20024;-82
2022/04/04 03:03:23;;;;;;;9.60;6.20;;;2.90;99.90;;;;;;5022258;28;20036;-83
2022/04/04 03:05:54;;;;;;;7.23;5.27;;;2.90;99.90;;;;;;5010420;28;20043;-84
2022/04/04 03:08:21;;;;;;;7.90;5.67;;;2.90;99.90;;;;;;5022303;28;20039;-84
2022/04/04 03:10:48;;;;;;;8.03;5.83;;;3.00;99.90;;;;;;5061869;28;20033;-86
2022/04/04 03:13:14;;;;;;;12.57;6.47;;;3.00;99.90;;;;;;5025095;28;20020;-82
2022/04/04 03:15:41;;;;;;;6.47;5.47;;;3.00;99.90;;;;;;5062364;28;20518;-85
2022/04/04 03:18:08;;;;;;;7.97;6.20;;;3.00;99.90;;;;;;4986675;28;20523;-84
2022/04/04 03:20:34;;;;;;;10.73;5.83;;;3.10;99.90;;;;;;5020782;28;20120;-80
2022/04/04 03:23:02;;;;;;;10.90;6.40;;;3.10;99.90;;;;;;5006633;28;20488;-84
2022/04/04 03:25:29;;;;;;;8.07;5.63;;;3.10;99.90;;;;;;5028913;28;20041;-84
2022/04/04 03:27:56;;;;;;;11.30;6.87;;;3.10;99.90;;;;;;4996419;28;20033;-86
2022/04/04 03:30:26;;;;;;;10.77;6.23;;;3.20;99.90;;;;;;5017191;28;20841;-83
2022/04/04 03:32:55;;;;;;;8.83;6.17;;;3.20;99.90;;;;;;5018239;28;20044;-84
2022/04/04 03:35:25;;;;;;;7.33;5.57;;;3.20;99.90;;;;;;5013828;28;20036;-86
2022/04/04 03:37:53;;;;;;;11.63;6.37;;;3.20;99.90;;;;;;5037513;28;20021;-87
2022/04/04 03:40:20;;;;;;;7.63;5.60;;;3.20;99.90;;;;;;4998981;28;20575;-80
2022/04/04 03:42:49;;;;;;;9.33;5.83;;;3.20;99.90;;;;;;5027900;28;20031;-83
2022/04/04 03:45:19;;;;;;;10.57;6.47;;;3.20;99.90;;;;;;5034098;28;20052;-82
2022/04/04 03:47:55;;;;;;;7.43;5.97;;;3.20;99.90;;;;;;5028023;28;20052;-82
2022/04/04 03:50:22;;;;;;;8.23;5.63;;;3.20;99.90;;;;;;5026416;28;20029;-81
2022/04/04 03:52:53;;;;;;;9.40;6.90;;;3.10;99.90;;;;;;4995947;28;20044;-82
2022/04/04 03:55:21;;;;;;;10.50;6.57;;;3.10;99.90;;;;;;5044704;28;20029;-82
2022/04/04 03:57:51;;;;;;;8.63;5.77;;;3.20;99.90;;;;;;5025891;28;20036;-80
2022/04/04 04:00:22;;;;;;;11.17;6.23;;;3.10;99.90;;;;;;5044792;28;20029;-83
2022/04/04 04:02:49;;;;;;;7.47;4.83;;;3.10;99.90;;;;;;5025484;28;20132;-81
2022/04/04 04:05:18;;;;;;;8.93;6.13;;;3.20;99.90;;;;;;5011029;28;20037;-85
2022/04/04 04:07:45;;;;;;;10.87;5.40;;;3.20;99.90;;;;;;5004384;28;20043;-86
2022/04/04 04:10:12;;;;;;;11.77;6.83;;;3.10;99.90;;;;;;4978659;28;20041;-80
2022/04/04 04:12:49;;;;;;;9.60;6.13;;;3.10;99.90;;;;;;5020230;28;20033;-86
2022/04/04 04:15:39;;;;;;;7.47;5.87;;;3.20;99.90;;;;;;5022941;28;20017;-84
2022/04/04 04:18:07;;;;;;;10.07;5.57;;;3.20;99.90;;;;;;5030306;28;20049;-86
2022/04/04 04:20:37;;;;;;;9.47;5.60;;;3.30;99.90;;;;;;5059710;28;20036;-86
2022/04/04 04:23:13;;;;;;;9.20;5.30;;;3.30;99.90;;;;;;5039175;28;20028;-86
2022/04/04 04:25:43;;;;;;;9.40;6.97;;;3.40;99.90;;;;;;5041531;28;20040;-84
2022/04/04 04:28:10;;;;;;;18.23;10.83;;;3.40;99.90;;;;;;5014442;28;20383;-81
2022/04/04 04:30:37;;;;;;;9.93;7.17;;;3.40;99.90;;;;;;5001145;28;20693;-86
2022/04/04 04:33:04;;;;;;;10.47;6.57;;;3.40;99.90;;;;;;5011550;28;20032;-85
2022/04/04 04:35:32;;;;;;;9.40;6.53;;;3.40;99.90;;;;;;5042844;28;20476;-87
2022/04/04 04:38:18;;;;;;;9.17;6.20;;;3.50;99.90;;;;;;5032038;28;20033;-87
2022/04/04 04:40:45;;;;;;;10.53;7.10;;;3.50;99.90;;;;;;5009307;28;20029;-87
2022/04/04 04:43:14;;;;;;;11.03;7.43;;;3.50;99.90;;;;;;5049161;28;20059;-86
2022/04/04 04:45:41;;;;;;;9.17;5.97;;;3.60;99.90;;;;;;4996289;28;20060;-86
2022/04/04 04:48:10;;;;;;;8.57;6.03;;;3.60;99.90;;;;;;5045022;28;20049;-88
2022/04/04 04:50:42;;;;;;;8.77;5.67;;;3.60;99.90;;;;;;5039281;28;20044;-85
2022/04/04 04:53:11;;;;;;;8.85;6.05;;;3.60;99.90;;;;;;5087408;28;20047;-86
2022/04/04 04:55:38;;;;;;;7.87;5.37;;;3.60;99.90;;;;;;5051339;28;20028;-81
2022/04/04 04:58:04;;;;;;;9.30;5.37;;;3.70;99.90;;;;;;5064998;28;20032;-83
2022/04/04 05:00:31;;;;;;;8.43;5.97;;;3.70;99.90;;;;;;5054080;28;20040;-85
2022/04/04 05:05:46;;;;;;;14.07;6.63;;;3.80;99.90;;;;;;5065147;28;20039;-81
2022/04/04 05:08:15;;;;;;;7.77;6.10;;;3.80;99.90;;;;;;5063658;28;20024;-82
2022/04/04 05:10:41;;;;;;;9.13;5.57;;;3.90;99.90;;;;;;5065851;28;20050;-84
2022/04/04 05:13:09;;;;;;;9.50;6.60;;;4.00;99.90;;;;;;5017189;28;21048;-83
2022/04/04 05:15:37;;;;;;;11.27;6.33;;;3.90;99.90;;;;;;5047006;28;20040;-84
2022/04/04 05:18:09;;;;;;;10.50;6.07;;;4.00;99.90;;;;;;5066519;28;20040;-84
2022/04/04 05:20:35;;;;;;;9.83;6.70;;;4.00;99.90;;;;;;5033119;28;20501;-85
2022/04/04 05:23:02;;;;;;;8.90;5.63;;;4.10;99.90;;;;;;5032584;28;20056;-84
2022/04/04 05:25:28;;;;;;;7.37;5.23;;;4.10;99.90;;;;;;5046955;28;20483;-85
2022/04/04 05:27:58;;;;;;;10.40;6.60;;;4.10;99.90;;;;;;5053099;28;20036;-83
2022/04/04 05:30:25;;;;;;;12.73;6.23;;;4.20;99.90;;;;;;5065236;28;20040;-83
2022/04/04 05:32:51;;;;;;;9.93;6.57;;;4.20;99.90;;;;;;5064537;28;20106;-83
2022/04/04 05:35:19;;;;;;;10.73;5.97;;;4.30;99.90;;;;;;5051024;28;20032;-85
2022/04/04 05:37:47;;;;;;;7.90;6.10;;;4.30;99.90;;;;;;5072844;28;20036;-85
2022/04/04 05:40:14;;;;;;;10.80;6.03;;;4.30;99.90;;;;;;5063327;28;20028;-85
2022/04/04 05:42:40;;;;;;;11.00;7.47;;;4.40;99.90;;;;;;5044415;28;20082;-85
2022/04/04 05:45:09;;;;;;;8.77;5.50;;;4.40;99.90;;;;;;5068199;28;20031;-85
2022/04/04 05:47:36;;;;;;;11.10;6.13;;;4.40;99.90;;;;;;5013823;28;20044;-85
2022/04/04 05:50:03;;;;;;;10.73;6.47;;;4.50;99.90;;;;;;5032567;28;20039;-78
2022/04/04 05:52:29;;;;;;;9.93;6.07;;;4.50;99.90;;;;;;5040608;28;20012;-79
2022/04/04 05:54:59;;;;;;;12.97;7.00;;;4.50;99.90;;;;;;5058763;28;20044;-78
2022/04/04 05:57:27;;;;;;;12.50;7.00;;;4.60;99.90;;;;;;5024487;28;20031;-78
2022/04/04 05:59:54;;;;;;;9.43;6.37;;;4.70;99.90;;;;;;5043430;28;20025;-78
2022/04/04 06:02:22;;;;;;;9.33;5.90;;;4.70;99.90;;;;;;5040166;28;20023;-79
2022/04/04 06:04:50;;;;;;;11.03;6.20;;;4.70;99.90;;;;;;5028053;28;20035;-78
2022/04/04 06:07:17;;;;;;;10.37;6.03;;;4.80;99.90;;;;;;5027991;28;20016;-79
2022/04/04 06:09:44;;;;;;;11.67;7.00;;;4.80;99.90;;;;;;5024635;28;20044;-78
2022/04/04 06:12:11;;;;;;;9.77;5.63;;;4.90;99.90;;;;;;5075192;28;20016;-79
2022/04/04 06:14:38;;;;;;;9.47;6.07;;;4.90;99.90;;;;;;5059943;28;20031;-78
2022/04/04 06:17:05;;;;;;;11.53;6.50;;;4.90;99.90;;;;;;5025109;28;20039;-79
2022/04/04 06:19:34;;;;;;;8.53;5.50;;;5.00;99.90;;;;;;5024175;28;20511;-79
2022/04/04 06:22:07;;;;;;;9.13;6.13;;;5.00;99.90;;;;;;5030727;28;20479;-85
2022/04/04 06:24:37;;;;;;;10.93;6.13;;;5.10;99.90;;;;;;5078282;28;20028;-86
2022/04/04 06:27:05;;;;;;;11.00;6.77;;;5.20;99.90;;;;;;5045441;28;20905;-86
2022/04/04 06:29:37;;;;;;;8.60;6.37;;;5.30;99.90;;;;;;5043963;28;20040;-86
2022/04/04 06:32:07;;;;;;;12.80;7.20;;;5.40;99.90;;;;;;5028028;28;20043;-85
2022/04/04 06:34:34;;;;;;;9.57;7.03;;;5.50;99.90;;;;;;5044844;28;20044;-84
2022/04/04 06:37:04;;;;;;;10.53;5.93;;;5.60;99.90;;;;;;5046456;28;20039;-86
2022/04/04 06:39:40;;;;;;;10.53;6.53;;;5.70;99.90;;;;;;5045077;28;20036;-86
2022/04/04 06:42:07;;;;;;;7.00;5.27;;;5.70;99.90;;;;;;5043824;28;20055;-86
2022/04/04 06:44:33;;;;;;;11.13;6.53;;;5.70;99.90;;;;;;5014101;28;20031;-85
2022/04/04 06:47:07;;;;;;;8.53;6.13;;;5.70;99.90;;;;;;5046700;28;20479;-86
2022/04/04 06:49:33;;;;;;;11.90;6.68;;;5.80;99.90;;;;;;5030562;28;20040;-86
2022/04/04 06:52:09;;;;;;;8.70;5.17;;;5.80;99.90;;;;;;5045850;28;20036;-86
2022/04/04 06:54:39;;;;;;;8.57;4.97;;;5.90;99.90;;;;;;5063379;28;20044;-86
2022/04/04 06:57:05;;;;;;;10.67;6.20;;;5.90;99.90;;;;;;5067066;28;20036;-86
2022/04/04 06:59:34;;;;;;;6.83;5.03;;;6.00;99.90;;;;;;5070651;28;20024;-85
2022/04/04 07:02:08;;;;;;;9.90;6.00;;;6.00;99.90;;;;;;5038140;28;20047;-86
2022/04/04 07:04:43;;;;;;;7.53;5.10;;;6.10;99.90;;;;;;5039880;28;20032;-86
2022/04/04 07:07:10;;;;;;;10.43;4.83;;;6.10;99.90;;;;;;5052645;28;20033;-85
2022/04/04 07:09:37;;;;;;;7.47;5.03;;;6.20;99.90;;;;;;5054550;28;20039;-85
2022/04/04 07:12:09;;;;;;;6.40;4.50;;;6.20;99.90;;;;;;5071419;28;20036;-85
2022/04/04 07:14:35;;;;;;;8.13;4.97;;;6.30;99.90;;;;;;5048552;28;20024;-85
2022/04/04 07:17:02;;;;;;;7.43;4.57;;;6.30;99.90;;;;;;5034013;28;20047;-86
2022/04/04 07:19:33;;;;;;;7.80;4.18;;;6.50;99.90;;;;;;5028380;28;20048;-85
2022/04/04 07:22:03;;;;;;;8.33;3.83;;;6.50;99.90;;;;;;5061576;28;20032;-86
2022/04/04 07:24:29;;;;;;;7.10;4.95;;;6.70;99.90;;;;;;5044577;28;20039;-85
2022/04/04 07:26:56;;;;;;;6.05;4.30;;;6.80;99.90;;;;;;5046188;28;20032;-85
2022/04/04 07:29:23;;;;;;;7.80;4.80;;;6.80;99.90;;;;;;5046662;28;20027;-85
2022/04/04 07:31:49;;;;;;;8.70;5.20;;;6.80;99.90;;;;;;5027692;28;21282;-84
2022/04/04 07:34:16;;;;;;;10.23;4.87;;;6.90;99.90;;;;;;5027121;28;20048;-78
2022/04/04 07:36:43;;;;;;;7.28;4.30;;;6.90;99.90;;;;;;5062087;28;20020;-78
2022/04/04 07:39:09;;;;;;;8.25;4.97;;;7.00;99.90;;;;;;5044368;28;20024;-78
2022/04/04 07:41:36;;;;;;;10.52;4.82;;;7.10;99.90;;;;;;5026856;28;20024;-78
2022/04/04 07:44:02;;;;;;;8.00;4.50;;;7.10;99.90;;;;;;5027524;28;20031;-78
2022/04/04 07:46:29;;;;;;;11.82;5.30;;;7.20;99.90;;;;;;5061445;28;20051;-78
2022/04/04 07:48:56;;;;;;;6.63;5.40;;;7.20;99.90;;;;;;5061361;28;20047;-78
2022/04/04 07:51:23;;;;;;;10.75;6.13;;;7.10;99.90;;;;;;5028154;28;20039;-78
2022/04/04 07:53:50;;;;;;;8.90;5.55;;;7.10;99.90;;;;;;5058987;28;20028;-78
2022/04/04 07:56:19;;;;;;;7.95;5.90;;;7.10;99.90;;;;;;5027367;28;20051;-77
2022/04/04 07:58:46;;;;;;;8.75;5.93;;;7.00;99.90;;;;;;5034221;28;20506;-79
2022/04/04 08:01:12;;;;;;;8.57;5.53;;;7.00;99.90;;;;;;5065987;28;20035;-78
2022/04/04 08:03:39;;;;;;;9.10;5.63;;;6.90;99.90;;;;;;5062749;28;20036;-78
2022/04/04 08:06:05;;;;;;;9.48;5.82;;;6.90;99.90;;;;;;5063063;28;20051;-77
2022/04/04 08:08:31;;;;;;;10.20;6.72;;;6.90;99.90;;;;;;5048580;28;20039;-78
2022/04/04 08:10:58;;;;;;;11.57;8.20;;;6.90;99.90;;;;;;5064072;28;20032;-76
2022/04/04 08:13:24;;;;;;;12.67;7.70;;;6.90;99.90;;;;;;5028993;28;20035;-77
2022/04/04 08:15:52;;;;;;;10.48;7.35;;;6.90;99.90;;;;;;5046063;28;20332;-77
2022/04/04 08:18:19;;;;;;;9.02;7.13;;;6.90;99.90;;;;;;5063896;28;20119;-77
2022/04/04 08:20:45;;;;;;;10.93;7.88;;;6.90;99.90;;;;;;5064640;28;20027;-77
2022/04/04 08:23:12;;;;;;;9.95;7.03;;;6.90;99.90;;;;;;5045665;28;20035;-77
2022/04/04 08:25:40;;;;;;;15.18;8.20;;;6.90;99.90;;;;;;5063266;28;20032;-77
2022/04/04 08:28:07;;;;;;;10.00;7.63;;;6.90;99.90;;;;;;5047037;28;20039;-78
2022/04/04 08:30:34;;;;;;;12.18;7.05;;;6.80;99.90;;;;;;5063918;28;20040;-78
2022/04/04 08:33:01;;;;;;;9.95;7.53;;;6.80;99.90;;;;;;5029326;28;20024;-78
2022/04/04 08:35:28;;;;;;;9.90;7.00;;;6.80;99.90;;;;;;5081667;28;20028;-78
2022/04/04 08:37:54;;;;;;;10.50;7.07;;;6.80;99.90;;;;;;5062250;28;20482;-78
2022/04/04 08:40:20;;;;;;;15.25;8.10;;;6.70;99.90;;;;;;5031525;28;20467;-79
2022/04/04 08:42:47;;;;;;;9.98;7.47;;;6.80;99.90;;;;;;5060335;28;20491;-80
2022/04/04 08:45:14;;;;;;;14.60;7.80;;;6.80;99.90;;;;;;5063527;28;20020;-80
2022/04/04 08:47:46;;;;;;;12.20;6.90;;;6.90;99.90;;;;;;5082039;28;20020;-79
2022/04/04 08:50:13;;;;;;;10.88;7.63;;;6.90;99.90;;;;;;5043615;28;20027;-77
2022/04/04 08:52:39;;;;;;;13.52;8.75;;;6.90;99.90;;;;;;5016156;28;20055;-77
2022/04/04 08:55:08;;;;;;;13.82;7.97;;;6.90;99.90;;;;;;5062423;28;20024;-77
2022/04/04 08:57:37;;;;;;;11.35;7.50;;;7.00;99.90;;;;;;5062492;28;20011;-78
2022/04/04 09:00:04;;;;;;;14.32;8.45;;;6.90;99.90;;;;;;5062981;28;20033;-78
2022/04/04 09:02:32;;;;;;;12.27;8.10;;;6.90;99.90;;;;;;5080736;28;20020;-86
2022/04/04 09:05:04;;;;;;;13.27;8.35;;;7.00;99.90;;;;;;5065456;28;20059;-85
2022/04/04 09:07:31;;;;;;;;;;;6.90;99.90;;;;;;5083036;28;20035;-84
2022/04/04 09:09:58;;;;;;;14.00;8.68;;;7.00;99.90;;;;;;5081206;28;20363;-84
2022/04/04 09:12:26;;;;;;;10.80;7.55;;;6.90;99.90;;;;;;5011145;28;20043;-84
2022/04/04 09:14:59;;;;;;;12.98;9.18;;;6.90;99.90;;;;;;5060713;28;20650;-83
2022/04/04 09:17:28;;;;;;;17.15;9.43;;;6.80;99.90;;;;;;5063938;28;20028;-84
2022/04/04 09:19:55;;;;;;;10.98;9.50;;;6.80;99.90;;;;;;5059672;28;20032;-84
2022/04/04 09:22:23;;;;;;;14.45;10.48;;;6.70;99.90;;;;;;5041288;28;20036;-85
2022/04/04 09:25:02;;;;;;;13.93;10.43;;;6.70;99.90;;;;;;5052198;28;20387;-85
2022/04/04 09:27:32;;;;;;;11.55;9.75;;;6.60;99.90;;;;;;5060086;28;20032;-84
2022/04/04 09:30:01;;;;;;;13.80;9.90;;;6.50;99.90;;;;;;5054760;28;20032;-86
2022/04/04 09:32:41;;;;;;;15.85;12.02;;;6.40;99.90;;;;;;5041197;28;20379;-85
2022/04/04 09:35:16;;;;;;;13.95;11.27;;;6.40;99.90;;;;;;5008902;28;20032;-84
2022/04/04 09:37:45;;;;;;;13.10;9.55;;;6.30;99.90;;;;;;5027657;28;20052;-84
2022/04/04 09:40:33;;;;;;;16.00;10.07;;;6.30;99.90;;;;;;5027030;28;20021;-85
2022/04/04 09:42:59;;;;;;;16.00;10.50;;;6.30;99.90;;;;;;5060318;28;20025;-84
2022/04/04 09:45:30;;;;;;;17.45;11.30;;;6.30;99.90;;;;;;5025685;28;20372;-86
2022/04/04 09:48:03;;;;;;;12.43;10.57;;;6.30;99.90;;;;;;4992294;28;20275;-85
2022/04/04 09:50:37;;;;;;;11.80;10.52;;;6.20;99.90;;;;;;5027052;28;20020;-85
2022/04/04 09:53:19;;;;;;;15.57;10.80;;;6.10;99.90;;;;;;5039703;28;20025;-85
2022/04/04 09:55:48;;;;;;;15.50;12.15;;;6.10;99.90;;;;;;5025228;28;20066;-85
2022/04/04 09:58:18;;;;;;;17.73;11.15;;;6.00;99.90;;;;;;5040352;28;20025;-87
2022/04/04 10:00:48;;;;;;;19.48;13.82;;;6.00;99.90;;;;;;5042958;28;20033;-87
2022/04/04 10:03:16;;;;;;;12.45;10.20;;;6.00;99.90;;;;;;5006959;28;20040;-87
2022/04/04 10:06:00;;;;;;;14.40;11.48;;;6.00;99.90;;;;;;5043003;28;20041;-87
2022/04/04 10:08:27;;;;;;;16.83;12.73;;;6.10;99.90;;;;;;5040686;28;20082;-87
2022/04/04 10:10:54;;;;;;;16.52;12.85;;;6.10;99.90;;;;;;5039756;28;20039;-86
2022/04/04 10:13:23;;;;;;;17.90;13.55;;;6.10;99.90;;;;;;5057359;28;20032;-86
2022/04/04 10:15:51;;;;;;;14.77;10.18;;;6.10;99.90;;;;;;5024645;28;20041;-86
2022/04/04 10:18:19;;;;;;;17.00;12.43;;;6.10;99.90;;;;;;5026615;28;20036;-78
2022/04/04 10:20:53;;;;;;;16.92;12.43;;;6.10;99.90;;;;;;5009222;28;20025;-78
2022/04/04 10:23:22;;;;;;;15.90;11.07;;;6.10;99.90;;;;;;5037792;28;20021;-78
2022/04/04 10:25:50;;;;;;;15.27;11.60;;;6.10;99.90;;;;;;5022380;28;20017;-78
2022/04/04 10:28:37;;;;;;;17.88;11.48;;;6.10;99.90;;;;;;5006786;28;20025;-78
2022/04/04 10:31:13;;;;;;;13.30;10.35;;;6.10;99.90;;;;;;5059433;28;20040;-78
2022/04/04 10:33:40;;;;;;;12.65;11.02;;;6.00;99.90;;;;;;5038191;28;20051;-77
2022/04/04 10:36:20;;;;;;;13.48;9.18;;;6.00;99.90;;;;;;5036928;28;20476;-78
2022/04/04 10:38:51;;;;;;;12.80;10.03;;;6.00;99.90;;;;;;5038706;28;20028;-77
2022/04/04 10:41:21;;;;;;;11.77;8.57;;;6.00;99.90;;;;;;5024721;28;20040;-78
2022/04/04 10:43:52;;;;;;;15.83;11.40;;;6.10;99.90;;;;;;5021137;28;20373;-78
2022/04/04 10:46:21;;;;;;;14.45;10.40;;;6.10;99.90;;;;;;5037388;28;20040;-78
2022/04/04 10:48:50;;;;;;;11.93;9.02;;;6.20;99.90;;;;;;5041248;28;20039;-77
2022/04/04 10:51:19;;;;;;;16.45;11.25;;;6.20;99.90;;;;;;5040175;28;20551;-78
2022/04/04 10:53:51;;;;;;;14.88;10.65;;;6.20;99.90;;;;;;5004870;28;20396;-77
2022/04/04 10:56:27;;;;;;;12.83;10.23;;;6.20;99.90;;;;;;5039596;28;20039;-77
2022/04/04 10:59:19;;;;;;;13.98;9.57;;;6.20;99.90;;;;;;5057011;28;20376;-78
2022/04/04 11:01:52;;;;;;;12.55;9.48;;;6.30;99.90;;;;;;5038819;28;20028;-77
2022/04/04 11:04:29;;;;;;;12.68;9.10;;;6.30;99.90;;;;;;5022608;28;20078;-77
2022/04/04 11:09:57;;;;;;;11.20;8.00;;;6.30;99.90;;;;;;5058440;28;20021;-79
2022/04/04 11:12:28;;;;;;;14.70;9.10;;;6.30;99.90;;;;;;5024925;28;20706;-78
2022/04/04 11:15:07;;;;;;;9.47;6.97;;;6.30;99.90;;;;;;5022838;28;20024;-79
2022/04/04 11:18:00;;;;;;;10.50;8.00;;;6.30;99.90;;;;;;5057373;28;20379;-78
2022/04/04 11:20:50;;;;;;;9.73;8.13;;;6.30;99.90;;;;;;5023662;28;20044;-78
2022/04/04 11:23:26;;;;;;;11.50;8.23;;;6.30;99.90;;;;;;5054497;28;20032;-78
2022/04/04 11:25:54;;;;;;;9.15;7.35;;;6.40;99.90;;;;;;5056077;28;20409;-78
2022/04/04 11:28:31;;;;;;;10.00;7.90;;;6.40;99.90;;;;;;5040771;28;20491;-78
2022/04/04 11:31:09;;;;;;;10.75;7.03;;;6.40;99.90;;;;;;5042081;28;20017;-76
2022/04/04 11:33:51;;;;;;;9.35;7.90;;;6.40;99.90;;;;;;5059597;28;20024;-76
2022/04/04 11:36:22;;;;;;;22.10;14.63;;;6.40;99.90;;;;;;5025580;28;20044;-75
2022/04/04 11:38:56;;;;;;;11.18;7.70;;;6.40;99.90;;;;;;5062240;28;20017;-84
2022/04/04 11:41:24;;;;;;;11.35;7.68;;;6.40;99.90;;;;;;5033846;28;20037;-84
2022/04/04 11:43:52;;;;;;;7.68;6.53;;;6.40;99.90;;;;;;5029360;28;20053;-83
2022/04/04 11:46:19;;;;;;;9.20;7.35;;;6.50;99.90;;;;;;5046191;28;20029;-83
2022/04/04 11:48:54;;;;;;;8.52;7.35;;;6.50;99.90;;;;;;5030572;28;20028;-80
2022/04/04 11:51:35;;;;;;;10.82;7.90;;;6.60;99.90;;;;;;5047099;28;20044;-84
2022/04/04 11:54:10;;;;;;;11.25;7.20;;;6.60;99.90;;;;;;5008673;28;20052;-83
2022/04/04 11:56:46;;;;;;;8.98;6.85;;;6.60;99.90;;;;;;5030858;28;20033;-84
2022/04/04 11:59:16;;;;;;;14.02;9.82;;;6.60;99.90;;;;;;5033315;28;20033;-87
2022/04/04 12:01:45;;;;;;;10.50;7.57;;;6.60;99.90;;;;;;5008890;28;20980;-77
2022/04/04 12:04:14;;;;;;;8.68;7.13;;;6.60;99.90;;;;;;5065238;28;20380;-77
2022/04/04 12:06:45;;;;;;;9.60;7.43;;;6.70;99.90;;;;;;5044888;28;20044;-75
2022/04/04 12:09:26;;;;;;;10.40;8.03;;;6.70;99.90;;;;;;5042046;28;20036;-74
2022/04/04 12:12:04;;;;;;;12.63;9.20;;;6.70;99.90;;;;;;5022145;28;20474;-75
2022/04/04 12:14:37;;;;;;;10.63;9.20;;;6.70;99.90;;;;;;5007547;28;20533;-77
2022/04/04 12:17:05;;;;;;;11.25;9.95;;;6.70;99.90;;;;;;5057024;28;20021;-77
2022/04/04 12:19:47;;;;;;;9.80;8.88;;;6.70;99.90;;;;;;5058508;28;20051;-76
2022/04/04 12:25:06;;;;;;;12.13;10.93;;;6.70;99.90;;;;;;5024209;28;20368;-76
2022/04/04 12:28:09;;;;;;;13.43;10.98;;;6.70;99.90;;;;;;5059296;28;20623;-87
2022/04/04 12:30:37;;;;;;;12.07;9.82;;;6.80;99.90;;;;;;5031347;28;20028;-77
2022/04/04 12:33:12;;;;;;;11.23;9.00;;;6.70;99.90;;;;;;5049648;28;20037;-79
2022/04/04 12:35:47;;;;;;;8.48;7.60;;;6.70;99.90;;;;;;5062106;28;20040;-81
2022/04/04 12:38:43;;;;;;;9.30;8.02;;;6.80;99.90;;;;;;5026586;28;20055;-82
2022/04/04 12:41:16;;;;;;;10.05;7.75;;;6.80;99.90;;;;;;5025052;28;20044;-84
2022/04/04 12:43:45;;;;;;;7.30;6.38;;;6.80;99.90;;;;;;5026622;28;20048;-86
2022/04/04 12:46:25;;;;;;;7.63;6.80;;;6.80;99.90;;;;;;5029647;28;20032;-84
2022/04/04 12:48:52;;;;;;;9.02;7.35;;;6.80;99.90;;;;;;5062356;28;20029;-84
2022/04/04 12:51:30;;;;;;;7.80;7.03;;;6.80;99.90;;;;;;5043082;28;20028;-86
2022/04/04 12:54:02;;;;;;;12.85;9.10;;;6.80;99.90;;;;;;5029451;28;20033;-84
2022/04/04 12:56:32;;;;;;;12.53;10.13;;;6.90;99.90;;;;;;5062950;28;20039;-85
2022/04/04 12:59:03;;;;;;;9.07;7.82;;;6.90;99.90;;;;;;5043912;28;20024;-85
2022/04/04 13:01:30;;;;;;;11.50;9.65;;;6.90;99.90;;;;;;5024779;28;20032;-84
2022/04/04 13:03:59;;;;;;;12.00;9.38;;;6.90;99.90;;;;;;5009759;28;20041;-85
2022/04/04 13:06:32;;;;;;;9.98;8.95;;;7.00;99.90;;;;;;5044624;28;20032;-83
2022/04/04 13:09:01;;;;;;;10.43;9.43;;;7.00;99.90;;;;;;5042615;28;20045;-84
2022/04/04 13:11:53;;;;;;;11.80;10.60;;;7.00;99.90;;;;;;5026008;28;20028;-88
2022/04/04 13:14:21;;;;;;;12.98;11.27;;;6.90;99.90;;;;;;5062588;28;20048;-86